Latest Weather Observations for Gold Coast Seaway

IDQ60801

Issued at 11:12 am EST Sunday 16 June 2019 (issued every 10 minutes, with the page automatically refreshed every 10 minutes)

About weather observations | Map of weather stations | Latest weather observations for QLD | Other Formats
Station Details ID: 040764 Name: GOLD COAST SEAWAY Lat: -27.94 Lon: 153.43 Height: 2.98 m
Data from the previous 72 hours. | See also: Recent months at Gold Coast Seaway
Date/Time
EST
Temp
°C
App
Temp
°C
Dew
Point
°C
Rel
Hum
%
Delta-T
°C
Wind Press
QNH
hPa
Press
MSL
hPa
Rain since
9am
mm
Dir  Spd
km/h
Gust
km/h
Spd
kts
Gust
kts
16/11:00am 20.1 19.9 17.5 85 1.6 WNW 15 19 8 10 1018.8 1018.8 0.0
16/10:30am 20.7 19.4 17.3 81 2.1 WNW 20 28 11 15 1019.3 1019.3 0.0
16/10:00am 20.4 19.7 17.4 83 1.8 WNW 17 20 9 11 1019.4 1019.4 0.0
16/09:30am 19.8 21.5 18.5 92 0.8 NW 7 13 4 7 1019.6 1019.6 0.0
16/09:00am 20.0 21.5 18.8 93 0.7 NW 9 11 5 6 1019.7 1019.7 0.0
16/08:30am 18.9 19.1 18.6 98 0.2 NW 15 19 8 10 1019.5 1019.5 0.0
16/08:00am 18.5 19.7 18.3 99 0.1 WNW 9 13 5 7 1019.1 1019.1 0.0
16/07:30am 18.3 20.0 18.1 99 0.1 SSW 6 7 3 4 1018.6 1018.6 0.0
16/07:00am 17.9 19.3 17.7 99 0.1 SSW 7 9 4 5 1018.5 1018.5 0.0
16/06:30am 17.8 18.4 17.6 99 0.1 SSW 11 13 6 7 1018.3 1018.3 0.0
16/06:00am 17.6 18.4 17.4 99 0.1 SW 9 13 5 7 1017.9 1017.9 0.0
16/05:30am 17.5 18.3 17.3 99 0.1 WSW 9 11 5 6 1017.6 1017.6 0.0
16/05:00am 17.4 18.5 17.2 99 0.1 SSW 7 9 4 5 1017.1 1017.1 0.0
16/04:30am 17.5 18.7 17.3 99 0.1 S 7 11 4 6 1017.1 1017.1 0.0
16/04:00am 17.3 19.4 17.1 99 0.1 SSW 2 7 1 4 1017.3 1017.3 0.0
16/03:30am 17.3 18.0 17.1 99 0.1 SSW 9 13 5 7 1017.5 1017.5 0.0
16/03:00am 17.7 19.0 17.5 99 0.1 SSW 7 9 4 5 1017.7 1017.7 0.0
16/02:30am 18.2 19.3 18.0 99 0.1 SSE 9 11 5 6 1017.9 1017.9 0.0
16/02:00am 18.1 19.2 17.9 99 0.1 S 9 11 5 6 1017.9 1017.9 0.0
16/01:30am 18.3 19.4 18.1 99 0.1 SSW 9 11 5 6 1018.1 1018.1 0.0
16/01:00am 17.9 18.5 17.7 99 0.1 SSW 11 13 6 7 1017.9 1017.9 0.0
16/12:30am 18.1 19.2 17.9 99 0.1 SW 9 11 5 6 1017.9 1017.9 0.0
16/12:00am 18.0 19.4 17.8 99 0.1 WSW 7 9 4 5 1018.1 1018.1 0.0
 
Date/Time
EST
Temp
°C
App
Temp
°C
Dew
Point
°C
Rel
Hum
%
Delta-T
°C
Wind Press
QNH
hPa
Press
MSL
hPa
Rain since
9am
mm
Dir  Spd
km/h
Gust
km/h
Spd
kts
Gust
kts
15/11:30pm 18.1 19.5 17.9 99 0.1 SW 7 9 4 5 1018.3 1018.3 0.0
15/11:00pm 18.8 20.2 18.6 99 0.1 SW 9 13 5 7 1018.5 1018.5 0.0
15/10:30pm 18.5 19.7 18.3 99 0.1 WSW 9 11 5 6 1018.5 1018.5 0.0
15/10:00pm 18.5 20.1 18.2 98 0.2 SW 7 9 4 5 1018.5 1018.5 0.0
15/09:30pm 18.7 20.3 18.2 97 0.3 SW 7 9 4 5 1018.4 1018.4 0.0
15/09:00pm 19.0 20.7 18.5 97 0.3 SW 7 9 4 5 1018.4 1018.4 0.0
15/08:30pm 19.3 20.8 18.8 97 0.3 SW 9 11 5 6 1018.7 1018.7 0.0
15/08:00pm 19.5 21.3 18.8 96 0.4 SSW 7 9 4 5 1018.5 1018.5 0.0
15/07:30pm 19.5 20.4 18.5 94 0.6 S 11 13 6 7 1018.2 1018.2 0.0
15/07:00pm 20.2 21.5 19.2 94 0.6 SE 11 13 6 7 1018.0 1018.0 0.0
15/06:30pm 20.2 22.1 19.0 93 0.8 ESE 7 9 4 5 1017.7 1017.7 0.0
15/06:00pm 20.5 22.4 19.0 91 0.9 E 7 9 4 5 1017.4 1017.4 0.0
15/05:30pm 20.8 22.6 19.5 92 0.8 E 9 13 5 7 1017.1 1017.1 0.0
15/05:00pm 21.0 22.5 19.7 92 0.8 ESE 11 13 6 7 1016.9 1016.9 0.0
15/04:30pm 21.6 22.5 20.1 91 1.0 SE 15 19 8 10 1016.8 1016.8 0.0
15/04:00pm 21.4 21.8 19.9 91 1.0 ESE 17 20 9 11 1016.7 1016.7 0.0
15/03:30pm 22.0 22.1 19.9 88 1.3 ESE 19 20 10 11 1016.5 1016.5 0.0
15/03:00pm 22.0 23.0 20.3 90 1.1 ESE 15 19 8 10 1016.5 1016.5 0.0
15/02:30pm 21.8 23.0 19.9 89 1.2 E 13 15 7 8 1016.6 1016.6 0.0
15/02:00pm 21.9 22.9 20.2 90 1.1 E 15 17 8 9 1016.6 1016.6 0.0
15/01:30pm 22.3 23.2 20.0 87 1.5 E 15 19 8 10 1016.8 1016.8 0.0
15/01:00pm 23.4 24.5 20.5 84 1.9 ESE 15 17 8 9 1017.0 1017.0 0.0
15/12:30pm 23.1 24.4 20.1 83 1.9 E 13 15 7 8 1017.4 1017.4 0.0
15/12:00pm 23.2 24.8 20.0 82 2.1 ESE 11 13 6 7 1017.9 1017.9 0.0
15/11:30am 23.3 24.6 20.1 82 2.1 SE 13 15 7 8 1018.3 1018.3 0.0
15/11:00am 22.9 24.5 19.9 83 1.9 SE 11 13 6 7 1018.9 1018.9 0.0
15/10:30am 23.1 24.6 19.7 81 2.2 SSE 11 13 6 7 1019.2 1019.2 0.0
15/10:00am 22.7 23.8 19.7 83 1.9 SSE 13 15 7 8 1019.4 1019.4 0.0
15/09:30am 21.8 22.6 19.0 84 1.8 S 13 15 7 8 1019.6 1019.6 0.0
15/09:00am 20.9 22.0 18.8 88 1.3 S 11 15 6 8 1019.2 1019.2 0.0
15/08:30am 19.4 21.0 18.2 93 0.7 SSW 7 9 4 5 1019.1 1019.1 0.0
15/08:00am 18.1 19.0 17.6 97 0.3 WSW 9 11 5 6 1018.9 1018.9 0.0
15/07:30am 17.5 18.3 17.3 99 0.1 WSW 9 11 5 6 1018.6 1018.6 0.0
15/07:00am 17.0 17.6 16.8 99 0.1 SW 9 13 5 7 1018.5 1018.5 0.0
15/06:30am 16.9 16.7 16.7 99 0.1 SW 13 13 7 7 1018.1 1018.1 0.0
15/06:00am 16.8 17.7 16.5 98 0.2 WSW 7 9 4 5 1017.6 1017.6 0.0
15/05:30am 16.7 18.0 16.2 97 0.3 W 4 7 2 4 1017.5 1017.5 0.0
15/05:00am 17.2 19.4 16.4 95 0.5 CALM 0 0 0 0 1017.3 1017.3 0.0
15/04:30am 17.9 18.7 17.3 96 0.4 WNW 9 11 5 6 1017.2 1017.2 0.0
15/04:00am 18.1 18.6 17.5 96 0.4 W 11 11 6 6 1016.9 1016.9 0.0
15/03:30am 18.1 18.9 17.3 95 0.5 WSW 9 11 5 6 1016.8 1016.8 0.0
15/03:00am 18.2 19.4 17.4 95 0.5 WSW 7 9 4 5 1016.9 1016.9 0.0
15/02:30am 18.3 19.2 17.5 95 0.5 WSW 9 11 5 6 1017.1 1017.1 0.0
15/02:00am 18.4 19.0 17.6 95 0.5 SW 11 13 6 7 1017.4 1017.4 0.0
15/01:30am 18.4 19.0 17.8 96 0.4 SW 11 15 6 8 1017.5 1017.5 0.0
15/01:00am 18.4 19.0 17.8 96 0.4 SW 11 13 6 7 1017.5 1017.5 0.0
15/12:30am 18.4 19.0 17.8 96 0.4 SW 11 13 6 7 1017.6 1017.6 0.0
15/12:00am 18.5 19.2 17.9 96 0.4 SW 11 13 6 7 1017.8 1017.8 0.0
 
Date/Time
EST
Temp
°C
App
Temp
°C
Dew
Point
°C
Rel
Hum
%
Delta-T
°C
Wind Press
QNH
hPa
Press
MSL
hPa
Rain since
9am
mm
Dir  Spd
km/h
Gust
km/h
Spd
kts
Gust
kts
14/11:30pm 18.6 18.9 17.9 96 0.4 SSW 13 15 7 8 1017.9 1017.9 0.0
14/11:00pm 18.9 19.7 18.2 96 0.4 SW 11 15 6 8 1018.2 1018.2 0.0
14/10:30pm 18.8 20.1 17.6 93 0.7 SSW 7 9 4 5 1018.1 1018.1 0.0
14/10:00pm 19.4 20.6 18.2 93 0.7 SW 9 9 5 5 1018.6 1018.6 0.0
14/09:30pm 20.0 21.8 18.7 92 0.8 SW 7 11 4 6 1018.7 1018.7 0.0
14/09:00pm 20.0 21.3 18.5 91 0.9 SSW 9 11 5 6 1018.6 1018.6 0.0
14/08:30pm 20.6 22.5 18.9 90 1.1 SW 7 11 4 6 1018.7 1018.7 0.0
14/08:00pm 21.3 22.0 19.6 90 1.1 ESE 15 17 8 9 1018.4 1018.4 0.0
14/07:30pm 21.1 21.7 19.4 90 1.1 SE 15 19 8 10 1018.0 1018.0 0.0
14/07:00pm 21.2 21.5 19.7 91 1.0 SE 17 20 9 11 1017.8 1017.8 0.0
14/06:30pm 21.3 21.1 19.8 91 1.0 SE 20 26 11 14 1017.8 1017.8 0.0
14/06:00pm 21.3 22.1 19.9 92 0.9 SE 15 19 8 10 1017.6 1017.6 0.0
14/05:30pm 21.4 21.3 20.0 92 0.9 SE 20 26 11 14 1017.0 1017.0 0.0
14/05:00pm 21.7 21.7 20.2 91 1.0 SE 20 24 11 13 1016.9 1016.9 0.0
14/04:30pm 22.1 21.4 19.6 86 1.6 SE 22 26 12 14 1016.6 1016.6 0.0
14/04:00pm 22.4 21.8 18.8 80 2.3 SE 20 26 11 14 1016.3 1016.3 0.0
14/03:30pm 23.0 21.8 18.3 75 2.9 SE 22 28 12 15 1016.3 1016.3 0.0
14/03:00pm 23.3 21.7 17.5 70 3.6 SE 22 26 12 14 1016.2 1016.2 0.0
14/02:30pm 22.7 21.2 17.6 73 3.2 SE 22 26 12 14 1016.2 1016.2 0.0
14/02:00pm 22.3 21.0 17.2 73 3.1 ESE 20 22 11 12 1016.3 1016.3 0.0
14/01:30pm 22.8 22.3 18.6 77 2.6 ESE 19 22 10 12 1016.5 1016.5 0.0
14/01:00pm 23.1 23.8 18.8 77 2.7 E 13 15 7 8 1016.4 1016.4 0.0
14/12:30pm 24.8 26.2 19.6 73 3.3 ENE 11 13 6 7 1016.8 1016.8 0.0
14/12:00pm 24.4 25.6 19.0 72 3.4 NE 11 13 6 7 1017.1 1017.1 0.0
14/11:30am 25.2 26.9 18.4 66 4.3 NNE 7 9 4 5 1017.4 1017.4 0.0
14/11:00am 25.0 27.0 19.1 70 3.8 NNE 7 9 4 5 1017.7 1017.7 0.0
14/10:30am 23.6 24.5 17.6 69 3.7 NNW 9 11 5 6 1018.0 1018.0 0.0
14/10:00am 21.8 22.1 15.9 69 3.5 NW 9 11 5 6 1018.3 1018.3 0.0
14/09:30am 20.0 20.4 16.4 80 2.2 NW 9 11 5 6 1018.5 1018.5 0.0
14/09:00am 19.3 19.5 15.8 80 2.1 NW 9 11 5 6 1018.4 1018.4 0.0
14/08:30am 18.1 18.2 15.5 85 1.5 WNW 9 11 5 6 1018.3 1018.3 0.0
14/08:00am 16.9 16.1 15.1 89 1.0 WNW 13 15 7 8 1018.2 1018.2 0.0
14/07:30am 16.0 14.9 15.2 95 0.5 WNW 15 17 8 9 1018.0 1018.0 0.0
14/07:00am 15.9 15.6 15.4 97 0.3 NW 11 13 6 7 1017.6 1017.6 0.0
14/06:30am 15.4 14.5 14.9 97 0.3 WNW 13 15 7 8 1017.5 1017.5 0.0
14/06:00am 15.8 15.8 15.3 97 0.3 NW 9 15 5 8 1017.1 1017.1 0.0
14/05:30am 16.1 15.5 15.6 97 0.3 NW 13 17 7 9 1016.8 1016.8 0.0
14/05:00am 16.2 15.6 15.7 97 0.3 NW 13 17 7 9 1016.7 1016.7 0.0
14/04:30am 16.3 15.3 15.7 96 0.4 NW 15 17 8 9 1016.3 1016.3 0.0
14/04:00am 16.7 15.5 16.1 96 0.4 NW 17 22 9 12 1016.3 1016.3 0.0
14/03:30am 16.6 15.8 16.0 96 0.4 NNW 15 19 8 10 1016.3 1016.3 0.0
14/03:00am 16.6 16.2 16.1 97 0.3 NW 13 15 7 8 1016.7 1016.7 0.0
14/02:30am 15.8 15.1 15.5 98 0.2 WNW 13 17 7 9 1017.1 1017.1 0.0
14/02:00am 16.0 15.0 15.7 98 0.2 WNW 15 19 8 10 1016.9 1016.9 0.0
14/01:30am 16.4 14.8 16.1 98 0.2 NW 19 20 10 11 1017.0 1017.0 0.0
14/01:00am 16.2 15.3 15.9 98 0.2 WNW 15 17 8 9 1017.3 1017.3 0.0
14/12:30am 16.2 15.6 15.7 97 0.3 WNW 13 15 7 8 1017.7 1017.7 0.0
14/12:00am 16.0 15.7 15.5 97 0.3 WNW 11 13 6 7 1018.0 1018.0 0.0
 
Date/Time
EST
Temp
°C
App
Temp
°C
Dew
Point
°C
Rel
Hum
%
Delta-T
°C
Wind Press
QNH
hPa
Press
MSL
hPa
Rain since
9am
mm
Dir  Spd
km/h
Gust
km/h
Spd
kts
Gust
kts
13/11:30pm 16.0 16.0 15.2 95 0.5 WNW 9 11 5 6 1018.1 1018.1 0.0
13/11:00pm 16.2 16.5 15.1 93 0.6 WNW 7 9 4 5 1018.5 1018.5 0.0
13/10:30pm 17.2 17.9 16.1 93 0.7 WNW 7 9 4 5 1018.8 1018.8 0.0
13/10:00pm 18.1 17.6 17.0 93 0.7 WNW 15 17 8 9 1018.9 1018.9 0.0
13/09:30pm 18.2 17.4 17.0 93 0.7 WNW 17 20 9 11 1018.6 1018.6 0.0
13/09:00pm 18.1 17.3 17.0 93 0.7 WNW 17 19 9 10 1018.5 1018.5 0.0
13/08:30pm 18.7 18.2 17.7 94 0.6 NW 17 22 9 12 1018.3 1018.3 0.0
13/08:00pm 18.8 17.8 17.6 93 0.7 NW 19 26 10 14 1018.0 1018.0 0.0
13/07:30pm 19.3 18.9 18.0 92 0.8 NNW 17 22 9 12 1017.7 1017.7 0.0
13/07:00pm 19.2 18.5 17.3 89 1.2 NNW 17 26 9 14 1017.7 1017.7 0.0
13/06:30pm 19.5 18.7 17.1 86 1.5 NNW 17 20 9 11 1017.9 1017.9 0.0
13/06:00pm 19.7 19.3 17.1 85 1.6 NNW 15 22 8 12 1018.1 1018.1 0.0
13/05:30pm 20.0 20.1 17.4 85 1.6 NNW 13 20 7 11 1017.6 1017.6 0.0
13/05:00pm 20.4 20.3 17.0 81 2.1 NNW 13 17 7 9 1017.4 1017.4 0.0
13/04:30pm 20.9 19.6 16.7 77 2.5 N 19 26 10 14 1017.0 1017.0 0.0
13/04:00pm 21.6 20.1 16.8 74 2.9 N 20 28 11 15 1016.8 1016.8 0.0
13/03:30pm 21.9 20.2 17.3 75 2.8 N 22 28 12 15 1017.0 1017.0 0.0
13/03:00pm 22.9 21.7 17.6 72 3.3 N 20 24 11 13 1017.2 1017.2 0.0
13/02:30pm 22.4 21.4 16.7 70 3.5 N 17 24 9 13 1017.3 1017.3 0.0
13/02:00pm 22.6 22.5 15.9 66 4.0 NW 11 19 6 10 1017.3 1017.3 0.0
13/01:30pm 22.3 21.4 15.9 67 3.9 NW 15 19 8 10 1017.7 1017.7 0.0
13/01:00pm 22.0 20.2 15.4 66 3.9 NW 19 26 10 14 1018.2 1018.2 0.0
13/12:30pm 22.1 20.5 16.1 69 3.6 NW 19 24 10 13 1018.4 1018.4 0.0
13/12:00pm 21.9 19.7 16.0 69 3.5 NW 22 28 12 15 1019.3 1019.3 0.0
13/11:30am 22.1 19.2 16.1 69 3.6 NW 26 32 14 17 1019.8 1019.8 0.0

Other formats

Comma delimited format used in spreadsheet applications
http://www.bom.gov.au/fwo/IDQ60801/IDQ60801.94580.axf

JavaScript Object Notation format (JSON) in row-major order
http://www.bom.gov.au/fwo/IDQ60801/IDQ60801.94580.json

Data quality

Most of these data are generated automatically and are frequently updated. Quality checks on data are not normally performed. It is possible for incorrect values to appear. Refer to information at About Latest Weather Observations and please check the disclaimer before using these data.